Time;durP1;ratioP1;P1;durP2;ratioP2;P2;SDS_P1;SDS_P2;PMS_P1;PMS_P2;Temp;Humidity;BMP_temperature;BMP_pressure;BME280_temperature;BME280_humidity;BME280_pressure;Samples;Min_cycle;Max_cycle;Signal;HPM_P1;HPM_P2
2022/06/27 00:01:51;;;;;;;5.07;4.60;;;22.10;99.90;;;;;;7367904;19;20313;-78
2022/06/27 00:04:16;;;;;;;5.10;4.63;;;22.00;99.90;;;;;;7374484;19;20337;-78
2022/06/27 00:10:10;;;;;;;4.80;4.40;;;21.90;99.90;;;;;;7149410;19;2004428;-79
2022/06/27 00:12:36;;;;;;;4.70;4.30;;;21.80;99.90;;;;;;7370842;19;20428;-78
2022/06/27 00:15:02;;;;;;;5.93;4.53;;;21.80;99.90;;;;;;7370494;19;20355;-78
2022/06/27 00:17:28;;;;;;;5.07;4.57;;;21.70;99.90;;;;;;7373389;19;20348;-78
2022/06/27 00:19:54;;;;;;;5.07;4.65;;;21.70;99.90;;;;;;7366804;19;20641;-78
2022/06/27 00:22:19;;;;;;;4.77;4.27;;;21.70;99.90;;;;;;7373747;19;20309;-80
2022/06/27 00:24:45;;;;;;;5.53;5.05;;;21.70;99.90;;;;;;7373526;19;20327;-79
2022/06/27 00:27:11;;;;;;;5.70;5.13;;;21.60;99.90;;;;;;7373633;19;21131;-78
2022/06/27 00:29:36;;;;;;;5.53;5.03;;;21.60;99.90;;;;;;7371504;19;20313;-78
2022/06/27 00:32:02;;;;;;;5.20;4.70;;;21.50;99.90;;;;;;7368483;19;20348;-79
2022/06/27 00:34:28;;;;;;;5.53;5.03;;;21.50;99.90;;;;;;7374155;19;20869;-78
2022/06/27 00:36:54;;;;;;;4.97;4.57;;;21.50;99.90;;;;;;7370525;19;20357;-79
2022/06/27 00:39:20;;;;;;;4.37;4.03;;;21.50;99.90;;;;;;7373421;19;20798;-79
2022/06/27 00:41:45;;;;;;;4.97;4.57;;;21.50;99.90;;;;;;7369370;19;20336;-78
2022/06/27 00:44:11;;;;;;;5.25;4.85;;;21.60;99.90;;;;;;7371645;19;20376;-79
2022/06/27 00:46:36;;;;;;;5.27;4.87;;;21.50;99.90;;;;;;7369415;19;20631;-79
2022/06/27 00:49:02;;;;;;;5.57;5.10;;;21.40;99.90;;;;;;7374433;19;20358;-78
2022/06/27 00:51:27;;;;;;;5.00;4.60;;;21.30;99.90;;;;;;7368665;19;20336;-79
2022/06/27 00:53:53;;;;;;;5.30;4.80;;;21.30;99.90;;;;;;7371903;19;20335;-78
2022/06/27 00:56:19;;;;;;;5.53;5.03;;;21.30;99.90;;;;;;7370668;19;21386;-78
2022/06/27 00:58:44;;;;;;;5.65;5.15;;;21.40;99.90;;;;;;7371043;19;20333;-78
2022/06/27 01:01:11;;;;;;;5.20;4.70;;;21.20;99.90;;;;;;7363929;19;21697;-79
2022/06/27 01:03:36;;;;;;;5.18;4.78;;;21.20;99.90;;;;;;7370936;19;20382;-78
2022/06/27 01:06:03;;;;;;;5.20;4.80;;;21.20;99.90;;;;;;7370713;19;20772;-77
2022/06/27 01:08:29;;;;;;;4.77;4.37;;;21.10;99.90;;;;;;7369878;19;20891;-78
2022/06/27 01:10:54;;;;;;;5.30;4.72;;;21.10;99.90;;;;;;7368114;19;20341;-79
2022/06/27 01:13:21;;;;;;;4.80;4.40;;;21.10;99.90;;;;;;7372593;19;20424;-78
2022/06/27 01:15:46;;;;;;;4.93;4.53;;;21.00;99.90;;;;;;7368997;19;20337;-79
2022/06/27 01:18:12;;;;;;;4.75;4.35;;;21.00;99.90;;;;;;7369707;19;20337;-79
2022/06/27 01:20:40;;;;;;;4.33;4.03;;;21.10;99.90;;;;;;7366577;19;20414;-78
2022/06/27 01:23:06;;;;;;;5.30;4.80;;;21.10;99.90;;;;;;7369007;19;20368;-79
2022/06/27 01:25:34;;;;;;;4.90;4.50;;;21.10;99.90;;;;;;7370366;19;20349;-78
2022/06/27 01:28:00;;;;;;;4.55;4.15;;;21.10;99.90;;;;;;7371832;19;20349;-78
2022/06/27 01:30:26;;;;;;;3.83;3.53;;;21.10;99.90;;;;;;7369810;19;20316;-78
2022/06/27 01:32:52;;;;;;;4.75;4.35;;;21.10;99.90;;;;;;7375898;19;20313;-80
2022/06/27 01:35:18;;;;;;;4.80;4.43;;;21.10;99.90;;;;;;7377046;19;20321;-79
2022/06/27 01:37:43;;;;;;;4.20;3.90;;;21.10;99.90;;;;;;7374316;19;20304;-78
2022/06/27 01:40:09;;;;;;;4.97;4.47;;;21.10;99.90;;;;;;7371917;19;20367;-79
2022/06/27 01:42:35;;;;;;;4.33;3.93;;;21.00;99.90;;;;;;7375209;19;20348;-78
2022/06/27 01:45:00;;;;;;;4.63;4.22;;;21.00;99.90;;;;;;7376753;19;20665;-79
2022/06/27 01:47:27;;;;;;;4.55;4.15;;;21.00;99.90;;;;;;7378118;19;20320;-79
2022/06/27 01:50:00;;;;;;;4.95;4.50;;;21.00;99.90;;;;;;7373423;19;20348;-79
2022/06/27 01:52:25;;;;;;;6.90;5.10;;;21.00;99.90;;;;;;7378093;19;20344;-79
2022/06/27 01:54:51;;;;;;;4.82;4.43;;;21.00;99.90;;;;;;7378171;19;20313;-79
2022/06/27 01:57:16;;;;;;;5.13;4.63;;;20.90;99.90;;;;;;7377889;19;20717;-78
2022/06/27 01:59:42;;;;;;;4.50;4.10;;;20.80;99.90;;;;;;7373663;19;20353;-79
2022/06/27 02:02:08;;;;;;;4.78;4.35;;;20.80;99.90;;;;;;7373997;19;20340;-78
2022/06/27 02:04:34;;;;;;;7.93;4.60;;;20.70;99.90;;;;;;7375703;19;20737;-78
2022/06/27 02:07:00;;;;;;;5.20;4.80;;;20.70;99.90;;;;;;7371425;19;20915;-80
2022/06/27 02:09:26;;;;;;;5.10;4.35;;;20.60;99.90;;;;;;7374277;19;20325;-78
2022/06/27 02:11:52;;;;;;;4.80;4.40;;;20.60;99.90;;;;;;7370219;19;20313;-78
2022/06/27 02:14:19;;;;;;;5.07;4.57;;;20.60;99.90;;;;;;7376818;19;20926;-78
2022/06/27 02:16:45;;;;;;;5.55;5.00;;;20.50;99.90;;;;;;7376813;19;20334;-78
2022/06/27 02:19:13;;;;;;;4.20;3.90;;;20.50;99.90;;;;;;7377952;19;20329;-79
2022/06/27 02:21:38;;;;;;;5.10;4.70;;;20.50;99.90;;;;;;7371432;19;20420;-78
2022/06/27 02:24:06;;;;;;;5.60;5.10;;;20.40;99.90;;;;;;7386826;19;20377;-79
2022/06/27 02:26:32;;;;;;;4.80;4.40;;;20.40;99.90;;;;;;7377978;19;20340;-78
2022/06/27 02:28:58;;;;;;;5.10;4.60;;;20.40;99.90;;;;;;7381747;19;20403;-79
2022/06/27 02:31:24;;;;;;;5.28;4.88;;;20.40;99.90;;;;;;7376806;19;20305;-78
2022/06/27 02:33:50;;;;;;;5.10;4.70;;;20.30;99.90;;;;;;7375599;19;20352;-79
2022/06/27 02:36:18;;;;;;;5.40;4.90;;;20.30;99.90;;;;;;7376439;19;20316;-78
2022/06/27 02:38:44;;;;;;;5.27;4.83;;;20.30;99.90;;;;;;7375012;19;20705;-78
2022/06/27 02:41:15;;;;;;;4.93;4.53;;;20.30;99.90;;;;;;7371228;19;20404;-78
2022/06/27 02:43:43;;;;;;;5.47;5.07;;;20.30;99.90;;;;;;7376416;19;20375;-79
2022/06/27 02:46:09;;;;;;;5.32;4.93;;;20.30;99.90;;;;;;7374349;19;20341;-79
2022/06/27 02:48:34;;;;;;;5.93;5.30;;;20.30;99.90;;;;;;7373606;19;20856;-79
2022/06/27 02:51:04;;;;;;;6.00;5.45;;;20.20;99.90;;;;;;7374078;19;20341;-79
2022/06/27 02:53:33;;;;;;;5.65;5.15;;;20.20;99.90;;;;;;7376335;19;20650;-78
2022/06/27 02:56:14;;;;;;;4.80;4.35;;;20.10;99.90;;;;;;7374563;19;21003;-78
2022/06/27 02:58:58;;;;;;;4.90;4.50;;;20.10;99.90;;;;;;7374743;19;20315;-78
2022/06/27 03:01:23;;;;;;;5.00;4.50;;;20.10;99.90;;;;;;7372372;19;20349;-79
2022/06/27 03:03:49;;;;;;;5.65;5.15;;;20.10;99.90;;;;;;7373637;19;20316;-79
2022/06/27 03:06:14;;;;;;;5.57;4.97;;;20.10;99.90;;;;;;7375117;19;20336;-79
2022/06/27 03:08:42;;;;;;;6.18;4.90;;;20.00;99.90;;;;;;7373925;19;20340;-78
2022/06/27 03:11:12;;;;;;;5.40;4.82;;;20.00;99.90;;;;;;7369444;19;20348;-79
2022/06/27 03:13:37;;;;;;;5.55;5.07;;;20.10;99.90;;;;;;7376135;19;20356;-78
2022/06/27 03:16:03;;;;;;;5.43;4.93;;;20.10;99.90;;;;;;7373360;19;20896;-78
2022/06/27 03:18:29;;;;;;;4.93;4.53;;;20.20;99.90;;;;;;7358714;19;20347;-78
2022/06/27 03:21:17;;;;;;;5.68;5.18;;;20.20;99.90;;;;;;7366558;19;20649;-79
2022/06/27 03:23:48;;;;;;;4.72;4.32;;;20.20;99.90;;;;;;7375270;19;20396;-79
2022/06/27 03:26:15;;;;;;;6.05;5.55;;;20.30;99.90;;;;;;7373219;19;21187;-79
2022/06/27 03:28:41;;;;;;;5.57;5.07;;;20.30;99.90;;;;;;7370210;19;20741;-79
2022/06/27 03:31:07;;;;;;;5.57;5.07;;;20.40;99.90;;;;;;7370470;19;20325;-79
2022/06/27 03:33:37;;;;;;;5.72;5.22;;;20.40;99.90;;;;;;7373928;19;20320;-79
2022/06/27 03:36:20;;;;;;;5.38;4.85;;;20.40;99.90;;;;;;7374322;19;20344;-79
2022/06/27 03:38:46;;;;;;;5.80;5.30;;;20.40;99.90;;;;;;7370897;19;20312;-79
2022/06/27 03:41:12;;;;;;;5.60;5.10;;;20.40;99.90;;;;;;7373947;19;20934;-79
2022/06/27 03:43:38;;;;;;;5.88;5.38;;;20.50;99.90;;;;;;7375731;19;20883;-78
2022/06/27 03:46:03;;;;;;;6.18;5.55;;;20.60;99.90;;;;;;7372075;19;20324;-79
2022/06/27 03:51:37;;;;;;;5.35;4.88;;;20.70;99.90;;;;;;7268654;19;2004373;-79
2022/06/27 03:54:02;;;;;;;6.10;5.50;;;20.70;99.90;;;;;;7374730;19;20677;-78
2022/06/27 03:56:28;;;;;;;5.88;5.38;;;20.80;99.90;;;;;;7371853;19;20341;-79
2022/06/27 03:58:54;;;;;;;5.60;5.10;;;20.80;99.90;;;;;;7371642;19;20345;-77
2022/06/27 04:01:20;;;;;;;5.73;5.23;;;20.80;99.90;;;;;;7370201;19;20337;-79
2022/06/27 04:03:45;;;;;;;7.07;6.47;;;20.90;99.90;;;;;;7372892;19;20440;-79
2022/06/27 04:06:13;;;;;;;6.53;6.00;;;21.00;99.90;;;;;;7376602;19;20389;-79
2022/06/27 04:08:39;;;;;;;6.03;5.47;;;21.10;99.90;;;;;;7373135;19;20336;-80
2022/06/27 04:11:04;;;;;;;5.77;5.27;;;21.10;99.90;;;;;;7370144;19;20951;-78
2022/06/27 04:13:34;;;;;;;6.47;5.97;;;21.20;99.90;;;;;;7370395;19;20360;-78
2022/06/27 04:16:18;;;;;;;6.43;5.85;;;21.20;99.90;;;;;;7372816;19;20470;-79
2022/06/27 04:19:19;;;;;;;6.50;6.00;;;21.30;99.90;;;;;;7268375;19;2004220;-78
2022/06/27 04:21:56;;;;;;;6.60;6.00;;;21.40;99.90;;;;;;7266343;19;2004321;-78
2022/06/27 04:24:41;;;;;;;6.30;5.70;;;21.50;99.90;;;;;;7372143;19;20323;-78
2022/06/27 04:27:07;;;;;;;6.13;5.63;;;21.50;99.90;;;;;;7372414;19;20351;-78
2022/06/27 04:29:33;;;;;;;7.72;6.13;;;21.60;99.90;;;;;;7371363;19;20916;-78
2022/06/27 04:31:58;;;;;;;5.83;5.27;;;21.70;99.90;;;;;;7370058;19;20356;-77
2022/06/27 04:34:27;;;;;;;6.05;5.55;;;21.80;99.90;;;;;;7380513;19;20351;-80
2022/06/27 04:36:52;;;;;;;6.40;5.80;;;21.90;99.90;;;;;;7372400;19;20933;-78
2022/06/27 04:39:19;;;;;;;6.65;6.05;;;22.00;99.90;;;;;;7371490;19;20919;-78
2022/06/27 04:41:51;;;;;;;9.63;6.47;;;22.20;99.90;;;;;;7367013;19;20305;-78
2022/06/27 04:44:18;;;;;;;8.65;6.82;;;22.30;99.90;;;;;;7370587;19;20339;-78
2022/06/27 04:46:47;;;;;;;11.90;6.68;;;22.40;99.90;;;;;;7366720;19;21285;-78
2022/06/27 04:49:16;;;;;;;6.90;6.20;;;22.50;99.90;;;;;;7368346;19;20325;-78
2022/06/27 04:51:43;;;;;;;7.60;6.22;;;22.60;99.90;;;;;;7369429;19;20316;-79
2022/06/27 04:54:10;;;;;;;5.88;5.38;;;22.80;99.90;;;;;;7372464;19;20371;-78
2022/06/27 04:56:42;;;;;;;5.90;5.10;;;22.90;99.90;;;;;;7374434;19;20325;-77
2022/06/27 04:59:08;;;;;;;5.38;4.97;;;23.00;99.90;;;;;;7371716;19;20345;-77
2022/06/27 05:01:36;;;;;;;5.53;4.95;;;23.10;99.90;;;;;;7371851;19;20674;-77
2022/06/27 05:04:05;;;;;;;5.22;4.72;;;23.30;99.90;;;;;;7372366;19;21220;-78
2022/06/27 05:06:34;;;;;;;5.50;5.00;;;23.50;99.90;;;;;;7371805;19;20340;-77
2022/06/27 05:09:02;;;;;;;5.90;5.40;;;23.70;99.90;;;;;;7370114;19;20336;-78
2022/06/27 05:11:27;;;;;;;5.57;5.07;;;23.90;99.90;;;;;;7366423;19;20344;-78
2022/06/27 05:13:53;;;;;;;5.90;4.65;;;24.00;99.90;;;;;;7370728;19;20348;-77
2022/06/27 05:16:30;;;;;;;5.97;5.40;;;24.20;99.90;;;;;;7261759;19;2004498;-77
2022/06/27 05:18:57;;;;;;;5.38;4.95;;;24.30;99.90;;;;;;7364172;19;21137;-77
2022/06/27 05:21:23;;;;;;;5.20;4.80;;;24.50;99.90;;;;;;7368540;19;21176;-77
2022/06/27 05:23:50;;;;;;;6.10;5.50;;;24.70;99.90;;;;;;7362615;19;20323;-77
2022/06/27 05:26:16;;;;;;;4.72;4.32;;;24.90;99.90;;;;;;7371171;19;20344;-78
2022/06/27 05:28:42;;;;;;;5.20;4.80;;;25.00;99.90;;;;;;7370420;19;20355;-77
2022/06/27 05:31:09;;;;;;;5.10;4.70;;;25.10;99.90;;;;;;7368747;19;21235;-76
2022/06/27 05:33:35;;;;;;;5.63;5.00;;;25.20;99.90;;;;;;7366441;19;20337;-77
2022/06/27 05:36:02;;;;;;;5.68;5.18;;;25.40;99.90;;;;;;7367622;19;20336;-77
2022/06/27 05:38:27;;;;;;;5.70;5.13;;;25.50;99.90;;;;;;7370163;19;20325;-77
2022/06/27 05:40:54;;;;;;;6.20;4.60;;;25.50;99.90;;;;;;7370096;19;20344;-77
2022/06/27 05:43:20;;;;;;;5.10;4.53;;;25.70;99.90;;;;;;7372480;19;20344;-77
2022/06/27 05:45:45;;;;;;;4.97;4.47;;;25.80;99.90;;;;;;7364987;19;20340;-77
2022/06/27 05:48:26;;;;;;;5.20;4.80;;;26.00;99.90;;;;;;7374110;19;20323;-77
2022/06/27 05:51:12;;;;;;;5.95;5.15;;;26.10;99.90;;;;;;7264138;19;2005036;-77
2022/06/27 05:53:38;;;;;;;4.68;4.28;;;26.10;99.90;;;;;;7371254;19;20327;-77
2022/06/27 05:56:06;;;;;;;6.28;5.22;;;26.20;99.90;;;;;;7370324;19;20353;-77
2022/06/27 05:58:32;;;;;;;4.75;4.35;;;26.30;99.90;;;;;;7373005;19;20957;-78
2022/06/27 06:00:58;;;;;;;4.18;3.88;;;26.50;99.90;;;;;;7369868;19;20378;-77
2022/06/27 06:03:25;;;;;;;5.10;4.68;;;26.70;99.90;;;;;;7369423;19;20335;-77
2022/06/27 06:05:53;;;;;;;5.32;4.88;;;26.80;99.90;;;;;;7369982;19;20336;-77
2022/06/27 06:08:20;;;;;;;4.60;4.20;;;26.70;99.90;;;;;;7373847;19;20406;-77
2022/06/27 06:10:46;;;;;;;5.23;4.73;;;26.80;99.90;;;;;;7370121;19;20325;-78
2022/06/27 06:13:11;;;;;;;5.43;4.60;;;26.70;99.90;;;;;;7372782;19;20683;-77
2022/06/27 06:15:38;;;;;;;5.63;5.13;;;26.90;99.90;;;;;;7375705;19;20409;-78
2022/06/27 06:18:04;;;;;;;5.55;5.03;;;26.70;99.90;;;;;;7376781;19;20390;-77
2022/06/27 06:20:31;;;;;;;5.73;5.23;;;26.70;99.90;;;;;;7373093;19;20353;-77
2022/06/27 06:22:58;;;;;;;5.78;5.15;;;26.80;99.90;;;;;;7375959;19;20348;-77
2022/06/27 06:25:24;;;;;;;5.37;4.97;;;26.80;99.90;;;;;;7375808;19;20363;-76
2022/06/27 06:27:50;;;;;;;4.65;4.15;;;26.90;99.90;;;;;;7379468;19;21106;-77
2022/06/27 06:30:15;;;;;;;4.75;4.32;;;27.20;99.90;;;;;;7374138;19;20396;-77
2022/06/27 06:32:45;;;;;;;5.28;4.72;;;27.50;99.90;;;;;;7372634;19;20650;-77
2022/06/27 06:35:11;;;;;;;4.70;4.32;;;27.80;99.90;;;;;;7375422;19;20369;-77
2022/06/27 06:37:39;;;;;;;4.80;4.30;;;27.90;99.90;;;;;;7376803;19;20334;-78
2022/06/27 06:40:06;;;;;;;4.53;4.20;;;28.00;99.90;;;;;;7375358;19;20354;-77
2022/06/27 06:42:32;;;;;;;4.18;3.78;;;28.10;99.90;;;;;;7380149;19;20690;-77
2022/06/27 06:45:16;;;;;;;3.97;3.67;;;28.30;99.90;;;;;;7279462;19;2004426;-77
2022/06/27 06:47:52;;;;;;;3.78;3.47;;;28.70;99.90;;;;;;7378404;19;20323;-77
2022/06/27 06:50:19;;;;;;;4.80;4.13;;;28.90;99.90;;;;;;7375234;19;20372;-77
2022/06/27 06:52:49;;;;;;;3.73;3.43;;;28.90;99.90;;;;;;7372127;19;20328;-77
2022/06/27 06:55:16;;;;;;;4.40;3.50;;;29.30;99.90;;;;;;7374667;19;20950;-77
2022/06/27 06:57:41;;;;;;;3.65;3.35;;;29.50;99.90;;;;;;7376411;19;20411;-77
2022/06/27 07:00:09;;;;;;;3.22;2.95;;;29.70;99.90;;;;;;7373496;19;20340;-78
2022/06/27 07:02:35;;;;;;;4.03;3.63;;;30.00;99.90;;;;;;7374642;19;20308;-77
2022/06/27 07:05:08;;;;;;;4.05;3.15;;;30.10;99.90;;;;;;7371956;19;20353;-78
2022/06/27 07:07:34;;;;;;;2.95;2.75;;;30.20;99.90;;;;;;7376495;19;20317;-78
2022/06/27 07:10:00;;;;;;;3.20;2.90;;;30.60;99.90;;;;;;7374380;19;20329;-78
2022/06/27 07:12:29;;;;;;;3.03;2.83;;;30.90;99.90;;;;;;7376346;19;20345;-77
2022/06/27 07:14:55;;;;;;;2.92;2.33;;;31.00;99.90;;;;;;7374923;19;20954;-78
2022/06/27 07:17:24;;;;;;;2.70;2.50;;;31.10;99.90;;;;;;7377664;19;20357;-78
2022/06/27 07:19:52;;;;;;;2.78;2.30;;;31.20;99.90;;;;;;7377517;19;20349;-79
2022/06/27 07:22:19;;;;;;;2.38;2.25;;;31.20;99.90;;;;;;7375676;19;20428;-79
2022/06/27 07:24:48;;;;;;;2.42;2.22;;;31.20;99.90;;;;;;7370821;19;20329;-77
2022/06/27 07:27:15;;;;;;;2.28;2.08;;;31.20;99.70;;;;;;7374666;19;21032;-79
2022/06/27 07:29:41;;;;;;;2.23;2.13;;;31.40;99.90;;;;;;7374492;19;20337;-78
2022/06/27 07:32:08;;;;;;;2.30;2.10;;;31.20;97.60;;;;;;7373535;19;20361;-78
2022/06/27 07:34:34;;;;;;;2.63;2.42;;;31.40;99.00;;;;;;7375250;19;20316;-79
2022/06/27 07:37:00;;;;;;;2.42;2.00;;;31.40;99.30;;;;;;7373874;19;20944;-77
2022/06/27 07:39:26;;;;;;;2.33;2.13;;;31.40;98.40;;;;;;7375625;19;20325;-78
2022/06/27 07:41:53;;;;;;;3.90;2.10;;;31.70;97.60;;;;;;7368676;19;20328;-77
2022/06/27 07:44:18;;;;;;;2.30;1.80;;;31.30;95.60;;;;;;7378140;19;20340;-79
2022/06/27 07:46:44;;;;;;;2.03;1.93;;;31.50;97.10;;;;;;7373516;19;20408;-78
2022/06/27 07:49:09;;;;;;;3.10;2.20;;;31.60;96.30;;;;;;7372534;19;20674;-78
2022/06/27 07:51:35;;;;;;;2.40;2.20;;;31.70;96.90;;;;;;7369087;19;20345;-77
2022/06/27 07:54:01;;;;;;;2.08;1.92;;;31.70;95.20;;;;;;7371757;19;20987;-78
2022/06/27 07:56:27;;;;;;;2.50;2.08;;;31.60;93.90;;;;;;7372810;19;20344;-78
2022/06/27 07:58:53;;;;;;;2.13;2.00;;;31.40;93.00;;;;;;7374117;19;20304;-78
2022/06/27 08:01:19;;;;;;;2.00;1.90;;;31.40;92.80;;;;;;7370273;19;20341;-77
2022/06/27 08:03:48;;;;;;;2.10;1.90;;;31.50;93.30;;;;;;7373028;19;20903;-78
2022/06/27 08:06:22;;;;;;;2.10;2.00;;;31.80;95.10;;;;;;7374615;19;20795;-78
2022/06/27 08:08:53;;;;;;;2.30;2.10;;;31.80;94.40;;;;;;7373824;19;20372;-77
2022/06/27 08:11:23;;;;;;;2.30;2.10;;;32.00;93.40;;;;;;7371377;19;20435;-78
2022/06/27 08:13:49;;;;;;;2.25;1.92;;;32.20;92.90;;;;;;7375582;19;20445;-77
2022/06/27 08:16:15;;;;;;;4.40;2.03;;;32.30;92.30;;;;;;7370069;19;20423;-77
2022/06/27 08:18:46;;;;;;;2.13;2.00;;;32.60;92.40;;;;;;7371589;19;20404;-77
2022/06/27 08:21:14;;;;;;;2.35;2.15;;;32.70;91.80;;;;;;7372510;19;20321;-77
2022/06/27 08:23:39;;;;;;;2.05;1.95;;;32.70;90.70;;;;;;7373231;19;20327;-77
2022/06/27 08:26:09;;;;;;;2.10;2.00;;;32.60;87.40;;;;;;7374396;19;20340;-76
2022/06/27 08:28:35;;;;;;;2.50;2.30;;;32.60;90.50;;;;;;7373540;19;20325;-77
2022/06/27 08:31:03;;;;;;;3.40;2.22;;;32.70;88.70;;;;;;7371784;19;20316;-77
2022/06/27 08:33:30;;;;;;;2.50;2.00;;;32.40;86.20;;;;;;7369408;19;20372;-77
2022/06/27 08:35:57;;;;;;;2.25;2.13;;;32.90;87.90;;;;;;7370748;19;20367;-77
2022/06/27 08:38:23;;;;;;;2.30;2.00;;;33.10;89.50;;;;;;7373121;19;20335;-78
2022/06/27 08:40:50;;;;;;;3.00;2.28;;;33.40;85.50;;;;;;7371913;19;21285;-77
2022/06/27 08:43:16;;;;;;;2.90;2.60;;;33.30;84.90;;;;;;7372540;19;20375;-77
2022/06/27 08:45:43;;;;;;;4.40;2.23;;;33.60;86.20;;;;;;7369657;19;20392;-77
2022/06/27 08:48:09;;;;;;;2.40;2.20;;;33.40;83.30;;;;;;7378933;19;20345;-78
2022/06/27 08:50:35;;;;;;;2.22;2.10;;;33.40;85.20;;;;;;7378315;19;20329;-78
2022/06/27 08:53:01;;;;;;;2.20;2.00;;;33.50;85.80;;;;;;7373998;19;20698;-77
2022/06/27 08:55:27;;;;;;;2.22;2.13;;;33.60;81.00;;;;;;7372893;19;20345;-79
2022/06/27 08:57:52;;;;;;;2.20;2.10;;;33.90;81.30;;;;;;7375321;19;20337;-77
2022/06/27 09:00:18;;;;;;;2.20;2.10;;;34.40;79.00;;;;;;7373093;19;20333;-77
2022/06/27 09:02:44;;;;;;;2.20;2.10;;;34.30;76.20;;;;;;7374548;19;20341;-78
2022/06/27 09:05:18;;;;;;;2.00;1.87;;;34.50;79.60;;;;;;7371434;19;20313;-78
2022/06/27 09:07:48;;;;;;;3.40;2.15;;;34.80;79.20;;;;;;7372592;19;20333;-77
2022/06/27 09:10:29;;;;;;;4.25;2.13;;;35.10;74.10;;;;;;7373907;19;20324;-77
2022/06/27 09:13:06;;;;;;;2.58;2.38;;;34.80;73.20;;;;;;7371326;19;20353;-78
2022/06/27 09:15:45;;;;;;;4.55;2.15;;;34.60;73.20;;;;;;7373024;19;20328;-76
2022/06/27 09:18:10;;;;;;;2.87;2.27;;;34.80;73.50;;;;;;7272246;19;2004411;-77
2022/06/27 09:20:58;;;;;;;2.45;2.22;;;34.50;71.30;;;;;;7369440;19;20647;-77
2022/06/27 09:23:41;;;;;;;3.05;2.70;;;34.40;69.30;;;;;;7269405;19;2004372;-77
2022/06/27 09:26:18;;;;;;;2.38;2.20;;;34.60;69.30;;;;;;7370600;19;20340;-77
2022/06/27 09:28:53;;;;;;;3.20;2.17;;;35.10;70.00;;;;;;7268542;19;2004433;-77
2022/06/27 09:31:28;;;;;;;2.65;2.45;;;35.20;68.80;;;;;;7370440;19;20335;-77
2022/06/27 09:34:02;;;;;;;2.40;2.00;;;35.00;66.50;;;;;;7367755;19;20359;-76
2022/06/27 09:36:29;;;;;;;2.15;2.03;;;35.20;67.30;;;;;;7370513;19;20356;-77
2022/06/27 09:38:55;;;;;;;2.70;2.08;;;35.20;65.00;;;;;;7373244;19;20364;-77
2022/06/27 09:41:22;;;;;;;2.20;2.00;;;35.40;66.20;;;;;;7367064;19;21056;-76
2022/06/27 09:43:48;;;;;;;3.88;2.42;;;35.80;66.90;;;;;;7371768;19;20343;-78
2022/06/27 09:46:15;;;;;;;4.60;2.37;;;35.80;64.90;;;;;;7370488;19;20674;-77
2022/06/27 09:48:44;;;;;;;3.75;1.92;;;35.90;64.30;;;;;;7372748;19;20316;-77
2022/06/27 09:51:15;;;;;;;2.10;1.98;;;36.10;64.80;;;;;;7377588;19;20328;-76
2022/06/27 09:53:44;;;;;;;2.10;2.00;;;36.40;62.00;;;;;;7379258;19;20332;-77
2022/06/27 09:56:11;;;;;;;2.20;2.00;;;36.30;59.80;;;;;;7378013;19;20316;-76
2022/06/27 09:58:37;;;;;;;3.10;2.20;;;35.80;59.80;;;;;;7379374;19;20313;-76
2022/06/27 10:01:04;;;;;;;2.50;2.30;;;36.10;60.50;;;;;;7377076;19;20309;-77
2022/06/27 10:03:31;;;;;;;1.98;1.88;;;36.20;60.40;;;;;;7374013;19;20324;-76
2022/06/27 10:05:58;;;;;;;1.98;1.88;;;36.70;60.20;;;;;;7373897;19;20373;-77
2022/06/27 10:08:23;;;;;;;2.55;2.00;;;36.90;58.40;;;;;;7377258;19;20341;-77
2022/06/27 10:11:01;;;;;;;2.40;2.20;;;37.40;58.50;;;;;;7375635;19;20333;-77
2022/06/27 10:13:30;;;;;;;2.40;2.20;;;36.80;54.80;;;;;;7378153;19;20344;-76
2022/06/27 10:16:03;;;;;;;3.05;2.28;;;36.90;59.10;;;;;;7375070;19;20396;-77
2022/06/27 10:18:30;;;;;;;2.35;2.25;;;37.00;58.60;;;;;;7376637;19;20374;-77
2022/06/27 10:20:56;;;;;;;2.28;2.17;;;37.20;59.70;;;;;;7373575;19;21399;-78
2022/06/27 10:23:26;;;;;;;2.30;2.20;;;37.90;58.70;;;;;;7378565;19;20332;-77
2022/06/27 10:25:52;;;;;;;2.50;2.30;;;37.70;58.00;;;;;;7378019;19;20686;-77
2022/06/27 10:28:18;;;;;;;2.70;2.50;;;37.70;57.40;;;;;;7378950;19;20313;-77
2022/06/27 10:30:43;;;;;;;2.65;2.45;;;37.80;58.30;;;;;;7372308;19;20327;-77
2022/06/27 10:33:28;;;;;;;3.15;2.42;;;37.70;56.40;;;;;;7375758;19;20341;-76
2022/06/27 10:35:57;;;;;;;2.55;2.40;;;37.90;58.20;;;;;;7273744;19;2004521;-77
2022/06/27 10:38:23;;;;;;;2.80;2.60;;;38.30;59.10;;;;;;7379029;19;20372;-79
2022/06/27 10:40:49;;;;;;;3.03;2.60;;;38.60;57.40;;;;;;7374853;19;20354;-76
2022/06/27 10:43:46;;;;;;;2.80;2.60;;;38.80;57.40;;;;;;7377503;19;20353;-77
2022/06/27 10:46:13;;;;;;;2.90;2.70;;;38.80;56.50;;;;;;7273405;19;2004428;-76
2022/06/27 10:48:42;;;;;;;3.78;2.70;;;37.90;55.80;;;;;;7382315;19;20309;-76
2022/06/27 10:51:33;;;;;;;3.03;2.83;;;37.70;58.50;;;;;;7381721;19;20500;-77
2022/06/27 10:53:59;;;;;;;2.97;2.78;;;37.70;56.60;;;;;;7272112;19;2004248;-77
2022/06/27 10:56:34;;;;;;;2.90;2.70;;;37.70;56.50;;;;;;7376447;19;20380;-78
2022/06/27 10:59:00;;;;;;;3.40;2.70;;;37.80;58.90;;;;;;7374411;19;20374;-78
2022/06/27 11:01:26;;;;;;;2.88;2.47;;;38.10;56.90;;;;;;7370090;19;20353;-77
2022/06/27 11:03:51;;;;;;;2.80;2.60;;;38.70;59.40;;;;;;7374238;19;20324;-76
2022/06/27 11:06:17;;;;;;;3.07;2.77;;;39.00;57.10;;;;;;7370651;19;20352;-77
2022/06/27 11:08:50;;;;;;;4.43;3.33;;;39.20;56.10;;;;;;7373519;19;20541;-79
2022/06/27 11:11:17;;;;;;;4.20;2.90;;;38.80;57.70;;;;;;7367133;19;20341;-76
2022/06/27 11:13:53;;;;;;;2.90;2.70;;;38.50;56.50;;;;;;7369446;19;20434;-77
2022/06/27 11:16:22;;;;;;;2.80;2.60;;;38.70;56.70;;;;;;7370907;19;20345;-78
2022/06/27 11:18:53;;;;;;;2.85;2.63;;;39.40;56.90;;;;;;7372076;19;21158;-77
2022/06/27 11:21:23;;;;;;;3.07;2.23;;;39.60;56.60;;;;;;7371920;19;20345;-77
2022/06/27 11:23:58;;;;;;;2.47;2.10;;;39.90;56.80;;;;;;7374449;19;20336;-78
2022/06/27 11:26:26;;;;;;;2.97;2.45;;;40.30;55.90;;;;;;7374126;19;20340;-78
2022/06/27 11:34:22;;;;;;;2.30;2.10;;;39.40;49.60;;;;;;7271924;19;2005114;-79
2022/06/27 11:36:47;;;;;;;2.40;2.17;;;39.50;53.00;;;;;;7374842;19;20662;-78
2022/06/27 11:39:15;;;;;;;2.40;2.20;;;40.00;54.30;;;;;;7377402;19;20467;-77
2022/06/27 11:41:41;;;;;;;2.40;2.20;;;40.50;53.50;;;;;;7370584;19;20920;-77
2022/06/27 11:44:10;;;;;;;2.60;2.30;;;40.10;50.90;;;;;;7374887;19;20661;-77
2022/06/27 11:46:45;;;;;;;2.00;1.90;;;39.50;50.40;;;;;;7374259;19;20324;-77
2022/06/27 11:49:12;;;;;;;2.30;2.10;;;40.20;53.30;;;;;;7376466;19;20365;-77
2022/06/27 11:51:40;;;;;;;2.40;2.10;;;40.50;51.30;;;;;;7373018;19;20419;-78
2022/06/27 11:54:14;;;;;;;4.03;2.47;;;41.00;51.60;;;;;;7376597;19;20333;-77
2022/06/27 11:56:44;;;;;;;4.03;2.30;;;41.00;50.30;;;;;;7373820;19;20325;-78
2022/06/27 11:59:11;;;;;;;2.60;2.40;;;41.10;50.40;;;;;;7376448;19;20337;-76
2022/06/27 12:02:02;;;;;;;2.10;2.00;;;41.30;50.40;;;;;;7370600;19;20875;-77
2022/06/27 12:04:32;;;;;;;2.20;2.10;;;41.70;51.20;;;;;;7271397;19;2004629;-77
2022/06/27 12:07:04;;;;;;;3.35;1.90;;;40.60;47.50;;;;;;7373337;19;20325;-77
2022/06/27 12:09:29;;;;;;;1.85;1.75;;;40.30;49.10;;;;;;7375957;19;20352;-77
2022/06/27 12:11:59;;;;;;;2.00;1.90;;;40.60;50.80;;;;;;7368461;19;20320;-77
2022/06/27 12:14:25;;;;;;;2.05;1.85;;;40.60;48.70;;;;;;7373196;19;20428;-77
2022/06/27 12:16:56;;;;;;;1.70;1.60;;;40.30;47.90;;;;;;7372080;19;20425;-77
2022/06/27 12:19:22;;;;;;;2.20;1.85;;;40.00;50.30;;;;;;7373153;19;20328;-76
2022/06/27 12:21:47;;;;;;;1.87;1.77;;;39.70;49.10;;;;;;7368869;19;20336;-76
2022/06/27 12:24:13;;;;;;;2.00;1.90;;;39.90;51.20;;;;;;7373332;19;20344;-76
2022/06/27 12:26:39;;;;;;;2.13;1.90;;;39.60;49.40;;;;;;7372789;19;20327;-77
2022/06/27 12:29:05;;;;;;;2.03;1.93;;;39.80;49.80;;;;;;7380138;19;20345;-78
2022/06/27 12:31:31;;;;;;;3.08;1.90;;;39.80;51.50;;;;;;7372795;19;20860;-77
2022/06/27 12:33:57;;;;;;;1.98;1.88;;;40.00;49.50;;;;;;7373614;19;20880;-77
2022/06/27 12:36:23;;;;;;;1.85;1.75;;;40.30;48.30;;;;;;7371537;19;20436;-77
2022/06/27 12:38:48;;;;;;;2.15;1.88;;;40.20;49.50;;;;;;7373714;19;20441;-77
2022/06/27 12:41:17;;;;;;;1.93;1.60;;;40.30;49.90;;;;;;7369908;19;20389;-76
2022/06/27 12:43:46;;;;;;;1.50;1.42;;;40.40;49.20;;;;;;7372362;19;20328;-78
2022/06/27 12:46:12;;;;;;;1.73;1.63;;;40.00;45.70;;;;;;7371444;19;20297;-78
2022/06/27 12:48:38;;;;;;;1.70;1.60;;;40.20;46.90;;;;;;7373901;19;20320;-76
2022/06/27 12:51:05;;;;;;;1.70;1.60;;;40.30;45.40;;;;;;7371445;19;20300;-77
2022/06/27 12:53:30;;;;;;;1.60;1.50;;;40.60;47.30;;;;;;7380601;19;20348;-77
2022/06/27 12:55:57;;;;;;;1.63;1.52;;;41.00;47.80;;;;;;7372296;19;20337;-76
2022/06/27 12:58:24;;;;;;;1.65;1.55;;;40.90;46.90;;;;;;7375230;19;20360;-77
2022/06/27 13:00:49;;;;;;;1.70;1.60;;;41.50;48.60;;;;;;7370749;19;20343;-77
2022/06/27 13:03:15;;;;;;;1.50;1.40;;;42.00;47.60;;;;;;7372692;19;20420;-77